Time;durP1;ratioP1;P1;durP2;ratioP2;P2;SDS_P1;SDS_P2;PMS_P1;PMS_P2;Temp;Humidity;BMP_temperature;BMP_pressure;BME280_temperature;BME280_humidity;BME280_pressure;Samples;Min_cycle;Max_cycle;Signal;HPM_P1;HPM_P2
2021/12/16 00:09:02;;;;;;;43.65;28.05;;;10.60;99.90;;;;;;5049002;28;20052;-43
2021/12/16 00:33:17;;;;;;;60.92;34.75;;;10.40;99.90;;;;;;5039724;28;20043;-44
2021/12/16 00:35:44;;;;;;;;;;;10.40;99.90;;;;;;5047840;28;20505;-43
2021/12/16 00:38:10;;;;;;;57.05;33.60;;;10.40;99.90;;;;;;5036860;28;20280;-43
2021/12/16 00:40:41;;;;;;;57.25;34.70;;;10.40;99.90;;;;;;5048031;28;20026;-43
2021/12/16 00:43:28;;;;;;;59.47;31.33;;;10.40;99.90;;;;;;5036961;28;20021;-43
2021/12/16 00:49:00;;;;;;;54.72;30.25;;;10.40;99.90;;;;;;5037489;28;20036;-42
2021/12/16 00:54:11;;;;;;;48.33;30.05;;;10.40;99.90;;;;;;5032269;28;20170;-43
2021/12/16 00:56:51;;;;;;;51.05;31.80;;;10.40;99.90;;;;;;5045593;28;20033;-44
2021/12/16 00:59:19;;;;;;;53.53;32.85;;;10.40;99.90;;;;;;5040782;28;20029;-44
2021/12/16 01:01:55;;;;;;;51.05;31.90;;;10.40;99.90;;;;;;5045745;28;20108;-44
2021/12/16 01:37:37;;;;;;;50.97;27.88;;;10.30;99.90;;;;;;5048221;28;20033;-43
2021/12/16 01:45:35;;;;;;;39.80;24.30;;;10.50;99.90;;;;;;5022659;28;20037;-43
2021/12/16 01:46:19;;;;;;;40.63;25.20;;;10.50;99.90;;;;;;5028312;28;20758;-43
2021/12/16 01:51:22;;;;;;;47.63;27.67;;;10.50;99.90;;;;;;5041000;28;20481;-44
2021/12/16 01:54:36;;;;;;;51.38;27.27;;;10.50;99.90;;;;;;5041837;28;20016;-42
2021/12/16 01:59:35;;;;;;;46.90;28.25;;;10.50;99.90;;;;;;5038357;28;20043;-43
2021/12/16 02:02:15;;;;;;;46.72;27.48;;;10.50;99.90;;;;;;5044535;28;20025;-44
2021/12/16 02:04:52;;;;;;;43.58;27.02;;;10.50;99.90;;;;;;5037766;28;20037;-43
2021/12/16 02:07:42;;;;;;;42.65;26.25;;;10.40;99.90;;;;;;5045961;28;20392;-44
2021/12/16 02:10:04;;;;;;;41.67;25.45;;;10.40;99.90;;;;;;5036212;28;20176;-44
2021/12/16 02:12:54;;;;;;;38.88;23.45;;;10.40;99.90;;;;;;5046097;28;20441;-43
2021/12/16 02:31:56;;;;;;;41.95;25.52;;;10.10;99.90;;;;;;5035477;28;20055;-42
2021/12/16 02:34:29;;;;;;;33.22;23.02;;;10.10;99.90;;;;;;5045554;28;20499;-42
2021/12/16 02:36:55;;;;;;;41.63;24.23;;;10.10;99.90;;;;;;5034839;28;20547;-44
2021/12/16 02:39:29;;;;;;;42.28;24.70;;;10.10;99.90;;;;;;5047301;28;20028;-44
2021/12/16 02:42:05;;;;;;;40.78;24.95;;;10.10;99.90;;;;;;5038177;28;20056;-43
2021/12/16 02:44:38;;;;;;;41.13;23.65;;;10.10;99.90;;;;;;5026088;28;20468;-44
2021/12/16 02:49:53;;;;;;;45.75;27.20;;;10.10;99.90;;;;;;5028090;28;20123;-44
2021/12/16 02:52:23;;;;;;;36.28;24.25;;;10.10;99.90;;;;;;5038376;28;20049;-44
2021/12/16 02:54:49;;;;;;;37.58;24.58;;;10.10;99.90;;;;;;5026799;28;20473;-43
2021/12/16 02:57:16;;;;;;;40.42;25.02;;;10.20;99.90;;;;;;5038599;28;20029;-42
2021/12/16 02:59:42;;;;;;;37.75;23.88;;;10.20;99.90;;;;;;5027049;28;20018;-43
2021/12/16 03:02:14;;;;;;;39.30;24.15;;;10.10;99.90;;;;;;5039563;28;20060;-44
2021/12/16 03:04:42;;;;;;;41.67;24.73;;;10.10;99.90;;;;;;5025913;28;20021;-43
2021/12/16 03:07:12;;;;;;;35.70;23.30;;;10.10;99.90;;;;;;5038665;28;20056;-43
2021/12/16 03:10:14;;;;;;;34.20;21.92;;;10.10;99.90;;;;;;5026978;28;20097;-44
2021/12/16 03:12:49;;;;;;;40.38;24.00;;;10.10;99.90;;;;;;5038356;28;20650;-43
2021/12/16 03:16:12;;;;;;;35.33;21.50;;;10.00;99.90;;;;;;5027270;28;20067;-43
2021/12/16 03:18:24;;;;;;;34.05;22.05;;;10.00;99.90;;;;;;5033539;28;20063;-43
2021/12/16 03:20:59;;;;;;;36.47;22.63;;;10.00;99.90;;;;;;5031280;28;20042;-42
2021/12/16 03:31:35;;;;;;;34.55;21.40;;;10.00;99.90;;;;;;5032182;28;20087;-42
2021/12/16 03:36:51;;;;;;;36.97;23.10;;;10.00;99.90;;;;;;5031424;28;20524;-42
2021/12/16 03:39:17;;;;;;;30.45;20.00;;;10.00;99.90;;;;;;5028389;28;20025;-44
2021/12/16 03:41:43;;;;;;;37.03;22.70;;;10.00;99.90;;;;;;5048321;28;20550;-43
2021/12/16 03:44:14;;;;;;;37.30;22.38;;;10.00;99.90;;;;;;5038592;28;20013;-44
2021/12/16 03:46:46;;;;;;;37.85;23.38;;;10.00;99.90;;;;;;5048691;28;20483;-43
2021/12/16 03:49:17;;;;;;;39.20;24.48;;;10.00;99.90;;;;;;5041191;28;20785;-44
2021/12/16 03:51:48;;;;;;;31.17;21.52;;;10.00;99.90;;;;;;5030382;28;20030;-44
2021/12/16 03:54:24;;;;;;;33.03;21.63;;;10.00;99.90;;;;;;5042639;28;20400;-42
2021/12/16 03:56:51;;;;;;;35.13;21.55;;;10.00;99.90;;;;;;5050065;28;20021;-43
2021/12/16 03:59:22;;;;;;;36.67;21.77;;;10.00;99.90;;;;;;5041890;28;20025;-44
2021/12/16 04:01:48;;;;;;;32.92;20.95;;;10.10;99.90;;;;;;5029166;28;20112;-44
2021/12/16 04:04:14;;;;;;;41.08;23.80;;;10.00;99.90;;;;;;5042407;28;20526;-43
2021/12/16 04:06:40;;;;;;;36.38;24.00;;;10.10;99.90;;;;;;5029733;28;20041;-43
2021/12/16 04:09:16;;;;;;;37.05;24.30;;;10.10;99.90;;;;;;5040342;28;20436;-44
2021/12/16 04:11:51;;;;;;;38.95;23.38;;;10.10;99.90;;;;;;5010017;28;20025;-43
2021/12/16 04:14:18;;;;;;;32.40;21.35;;;10.10;99.90;;;;;;5036615;28;20616;-43
2021/12/16 04:16:52;;;;;;;36.60;22.85;;;10.10;99.90;;;;;;5029877;28;20443;-44
2021/12/16 04:19:22;;;;;;;36.45;23.05;;;10.10;99.90;;;;;;5039904;28;20033;-43
2021/12/16 04:22:11;;;;;;;37.95;23.75;;;10.10;99.90;;;;;;5030454;28;20034;-44
2021/12/16 04:24:38;;;;;;;39.20;24.33;;;10.10;99.90;;;;;;5040466;28;20056;-44
2021/12/16 04:27:06;;;;;;;44.25;25.55;;;10.10;99.90;;;;;;5028815;28;20050;-43
2021/12/16 04:29:32;;;;;;;36.97;22.25;;;10.10;99.90;;;;;;5038063;28;20166;-44
2021/12/16 04:31:59;;;;;;;33.75;20.75;;;10.10;99.90;;;;;;5032132;28;20120;-43
2021/12/16 04:34:25;;;;;;;44.35;25.48;;;10.20;99.90;;;;;;5036063;28;20025;-44
2021/12/16 04:36:52;;;;;;;42.10;23.90;;;10.20;99.90;;;;;;5034126;28;20481;-43
2021/12/16 04:39:21;;;;;;;34.67;22.42;;;10.20;99.90;;;;;;5033695;28;20032;-43
2021/12/16 04:41:47;;;;;;;44.30;23.23;;;10.20;99.90;;;;;;5036006;28;20022;-44
2021/12/16 04:44:15;;;;;;;39.03;24.08;;;10.10;99.90;;;;;;5031333;28;20029;-43
2021/12/16 04:46:42;;;;;;;37.22;22.88;;;10.10;99.90;;;;;;5038343;28;20041;-44
2021/12/16 04:49:09;;;;;;;42.38;24.05;;;10.10;99.90;;;;;;5030600;28;20400;-43
2021/12/16 04:51:37;;;;;;;47.85;25.23;;;10.10;99.90;;;;;;5039110;28;20469;-43
2021/12/16 04:54:05;;;;;;;35.97;23.38;;;10.10;99.90;;;;;;5035175;28;20029;-43
2021/12/16 04:56:31;;;;;;;40.50;23.95;;;10.10;99.90;;;;;;5036913;28;20021;-43
2021/12/16 04:58:57;;;;;;;41.78;23.40;;;10.10;99.90;;;;;;5048683;28;20036;-42
2021/12/16 05:01:24;;;;;;;38.92;22.17;;;10.10;99.90;;;;;;5036016;28;20362;-43
2021/12/16 05:03:51;;;;;;;38.45;21.38;;;10.10;99.90;;;;;;5047846;28;20045;-43
2021/12/16 05:06:16;;;;;;;40.38;22.23;;;10.10;99.90;;;;;;5036222;28;20611;-43
2021/12/16 05:08:43;;;;;;;39.33;22.05;;;10.10;99.90;;;;;;5048521;28;20025;-42
2021/12/16 05:11:12;;;;;;;34.53;20.30;;;10.10;99.90;;;;;;5036056;28;20113;-43
2021/12/16 05:13:39;;;;;;;33.22;21.80;;;10.10;99.90;;;;;;5047962;28;20021;-43
2021/12/16 05:16:05;;;;;;;37.53;22.17;;;10.10;99.90;;;;;;5038611;28;20029;-45
2021/12/16 05:18:37;;;;;;;38.35;21.98;;;10.00;99.90;;;;;;5044696;28;20027;-44
2021/12/16 05:21:38;;;;;;;38.33;22.13;;;10.00;99.90;;;;;;5040574;28;20053;-43
2021/12/16 05:24:17;;;;;;;35.22;21.33;;;10.10;99.90;;;;;;5047703;28;20037;-43
2021/12/16 05:26:45;;;;;;;34.55;21.00;;;10.00;99.90;;;;;;5035412;28;20037;-43
2021/12/16 05:29:10;;;;;;;38.65;22.48;;;10.00;99.90;;;;;;5048208;28;20036;-43
2021/12/16 05:31:37;;;;;;;37.33;21.92;;;10.00;99.90;;;;;;5037778;28;20031;-43
2021/12/16 05:34:05;;;;;;;35.65;20.60;;;10.00;99.90;;;;;;5044823;28;20412;-42
2021/12/16 05:36:30;;;;;;;34.97;19.98;;;10.00;99.90;;;;;;5040832;28;20112;-44
2021/12/16 05:38:57;;;;;;;27.52;16.80;;;10.00;99.90;;;;;;5041788;28;20159;-44
2021/12/16 05:41:24;;;;;;;30.90;18.42;;;10.00;99.90;;;;;;5043091;28;20047;-43
2021/12/16 05:43:50;;;;;;;34.00;19.85;;;10.00;99.90;;;;;;5040643;28;20032;-43
2021/12/16 05:46:19;;;;;;;37.30;21.35;;;10.00;99.90;;;;;;5044385;28;20040;-44
2021/12/16 05:48:47;;;;;;;36.00;19.77;;;10.00;99.90;;;;;;5038243;28;20027;-44
2021/12/16 05:51:21;;;;;;;33.13;18.90;;;10.00;99.90;;;;;;5046801;28;20024;-44
2021/12/16 05:53:48;;;;;;;38.88;21.45;;;10.00;99.90;;;;;;5025568;28;20075;-43
2021/12/16 05:56:14;;;;;;;33.72;19.20;;;10.00;99.90;;;;;;5045939;28;20411;-44
2021/12/16 05:58:40;;;;;;;31.45;19.95;;;10.00;99.90;;;;;;5036154;28;20024;-43
2021/12/16 06:01:10;;;;;;;31.33;19.35;;;9.90;99.90;;;;;;5046369;28;20029;-43
2021/12/16 06:03:38;;;;;;;31.92;18.88;;;10.00;99.90;;;;;;5036330;28;20435;-42
2021/12/16 06:06:04;;;;;;;31.52;18.38;;;10.00;99.90;;;;;;5047367;28;20044;-44
2021/12/16 06:08:30;;;;;;;28.80;17.63;;;10.00;99.90;;;;;;5033866;28;20037;-43
2021/12/16 06:11:17;;;;;;;31.05;17.60;;;10.00;99.90;;;;;;5047787;28;20059;-44
2021/12/16 06:28:02;;;;;;;27.98;18.55;;;10.00;99.90;;;;;;5041206;28;20130;-43
2021/12/16 06:30:31;;;;;;;26.90;18.77;;;10.00;99.90;;;;;;5040143;28;20396;-44
2021/12/16 06:32:57;;;;;;;29.05;19.50;;;9.90;99.90;;;;;;5043971;28;20467;-42
2021/12/16 06:35:23;;;;;;;32.00;19.27;;;9.80;99.90;;;;;;5037254;28;20027;-42
2021/12/16 06:37:50;;;;;;;29.45;18.20;;;9.80;99.90;;;;;;5045460;28;20744;-44
2021/12/16 06:40:16;;;;;;;29.65;18.55;;;9.80;99.90;;;;;;5036130;28;20443;-42
2021/12/16 06:42:43;;;;;;;24.80;15.65;;;9.80;99.90;;;;;;5044931;28;20033;-43
2021/12/16 06:45:19;;;;;;;27.38;17.75;;;9.80;99.90;;;;;;5035857;28;20024;-42
2021/12/16 06:47:50;;;;;;;24.33;16.45;;;9.80;99.90;;;;;;5045919;28;20108;-42
2021/12/16 06:53:05;;;;;;;27.13;17.48;;;9.80;99.90;;;;;;5028225;28;20037;-43
2021/12/16 06:55:39;;;;;;;30.70;19.17;;;9.70;99.90;;;;;;5037981;28;20030;-41
2021/12/16 07:01:17;;;;;;;29.92;17.83;;;9.70;99.90;;;;;;4968677;28;20047;-44
2021/12/16 07:03:47;;;;;;;29.25;17.27;;;9.70;99.90;;;;;;5019996;28;20035;-43
2021/12/16 07:06:19;;;;;;;27.73;16.10;;;9.70;99.90;;;;;;5022334;28;20107;-44
2021/12/16 07:08:46;;;;;;;32.17;16.63;;;9.80;99.90;;;;;;5011467;28;20368;-42
2021/12/16 07:11:12;;;;;;;25.83;15.48;;;9.80;99.90;;;;;;5035166;28;20037;-43
2021/12/16 07:13:41;;;;;;;30.80;16.40;;;9.80;99.90;;;;;;5027299;28;20041;-43
2021/12/16 07:16:10;;;;;;;31.50;16.42;;;9.70;99.90;;;;;;5036578;28;20060;-32
2021/12/16 07:18:35;;;;;;;27.45;16.40;;;9.70;99.90;;;;;;5026015;28;20057;-33
2021/12/16 07:21:02;;;;;;;28.58;16.25;;;9.80;99.90;;;;;;5037307;28;20112;-33
2021/12/16 07:23:30;;;;;;;28.75;17.42;;;9.80;99.90;;;;;;5026304;28;20109;-32
2021/12/16 07:25:58;;;;;;;26.30;16.88;;;9.80;99.90;;;;;;5037042;28;20029;-32
2021/12/16 07:28:24;;;;;;;31.27;15.77;;;9.80;99.90;;;;;;5025946;28;20072;-42
2021/12/16 07:30:50;;;;;;;31.23;16.83;;;9.80;99.90;;;;;;5037314;28;20175;-44
2021/12/16 07:33:17;;;;;;;25.20;16.58;;;9.80;99.90;;;;;;5025932;28;20465;-42
2021/12/16 07:35:45;;;;;;;29.45;15.80;;;9.80;99.90;;;;;;5033760;28;20551;-42
2021/12/16 07:38:11;;;;;;;31.83;17.10;;;9.80;99.90;;;;;;5029112;28;20029;-43
2021/12/16 07:40:40;;;;;;;34.42;18.65;;;9.80;99.90;;;;;;5033389;28;20113;-43
2021/12/16 07:45:35;;;;;;;31.05;17.75;;;9.80;99.90;;;;;;5029572;28;20392;-43
2021/12/16 07:48:02;;;;;;;34.15;17.13;;;9.80;99.90;;;;;;5024701;28;20037;-43
2021/12/16 07:50:27;;;;;;;23.58;14.98;;;9.80;99.90;;;;;;5028431;28;20024;-43
2021/12/16 07:52:54;;;;;;;27.30;15.32;;;9.80;99.90;;;;;;5035364;28;20112;-43
2021/12/16 07:55:20;;;;;;;25.05;15.13;;;9.80;99.90;;;;;;5027714;28;20021;-43
2021/12/16 07:57:46;;;;;;;30.42;14.73;;;9.80;99.90;;;;;;5035026;28;20032;-43
2021/12/16 08:00:19;;;;;;;28.60;15.27;;;9.80;99.90;;;;;;5027116;28;20026;-41
2021/12/16 08:02:45;;;;;;;29.85;15.55;;;9.80;99.90;;;;;;5039658;28;20040;-43
2021/12/16 08:05:11;;;;;;;25.65;15.30;;;9.80;99.90;;;;;;5029831;28;20104;-43
2021/12/16 08:07:38;;;;;;;26.25;16.30;;;9.80;99.90;;;;;;5041095;28;20036;-43
2021/12/16 08:10:07;;;;;;;28.00;16.20;;;9.80;99.90;;;;;;5029417;28;20029;-43
2021/12/16 08:12:35;;;;;;;27.90;15.80;;;9.80;99.90;;;;;;5041708;28;20025;-43
2021/12/16 08:15:01;;;;;;;25.92;15.85;;;9.80;99.90;;;;;;5029202;28;20104;-43
2021/12/16 08:17:27;;;;;;;23.05;13.57;;;9.80;99.90;;;;;;5040908;28;20564;-44
2021/12/16 08:19:52;;;;;;;22.05;14.75;;;9.80;99.90;;;;;;5029294;28;20128;-43
2021/12/16 08:22:18;;;;;;;45.47;15.85;;;9.80;99.90;;;;;;5038438;28;20048;-43
2021/12/16 08:24:44;;;;;;;24.35;14.23;;;9.80;99.90;;;;;;5031910;28;20026;-43
2021/12/16 08:27:11;;;;;;;24.92;15.20;;;9.80;99.90;;;;;;5035526;28;20032;-43
2021/12/16 08:29:37;;;;;;;20.88;13.73;;;9.80;99.90;;;;;;5034230;28;20025;-42
2021/12/16 08:32:04;;;;;;;23.52;12.82;;;9.80;99.90;;;;;;5033358;28;20029;-44
2021/12/16 08:34:32;;;;;;;24.30;12.05;;;9.80;99.90;;;;;;5036165;28;20095;-43
2021/12/16 08:36:58;;;;;;;24.00;12.98;;;9.80;99.90;;;;;;5030897;28;20018;-44
2021/12/16 08:39:25;;;;;;;22.65;12.57;;;9.80;99.90;;;;;;5039106;28;20635;-43
2021/12/16 08:41:54;;;;;;;24.73;13.68;;;9.80;99.90;;;;;;5032556;28;20420;-44
2021/12/16 08:44:24;;;;;;;19.60;13.55;;;9.80;99.90;;;;;;5038035;28;20033;-44
2021/12/16 08:46:54;;;;;;;20.08;13.57;;;9.70;99.90;;;;;;5039330;28;20494;-43
2021/12/16 08:49:20;;;;;;;19.02;13.00;;;9.80;99.90;;;;;;5037994;28;20044;-43
2021/12/16 08:51:53;;;;;;;18.13;11.48;;;9.80;99.90;;;;;;5028703;28;20037;-43
2021/12/16 08:54:19;;;;;;;29.08;13.18;;;9.80;99.90;;;;;;5033956;28;20078;-44
2021/12/16 08:56:46;;;;;;;21.95;13.27;;;9.70;99.90;;;;;;5027357;28;20393;-42
2021/12/16 08:59:13;;;;;;;30.85;13.07;;;9.80;99.90;;;;;;5035499;28;20025;-43
2021/12/16 09:01:43;;;;;;;22.02;13.82;;;9.80;99.90;;;;;;5048238;28;20464;-41
2021/12/16 09:04:09;;;;;;;20.80;13.93;;;9.80;99.90;;;;;;5035156;28;20018;-42
2021/12/16 09:06:36;;;;;;;21.63;12.15;;;9.70;99.90;;;;;;5048218;28;20097;-43
2021/12/16 09:09:05;;;;;;;20.88;12.95;;;9.80;99.90;;;;;;5037075;28;20580;-44
2021/12/16 09:11:36;;;;;;;20.50;12.75;;;9.80;99.90;;;;;;5046563;28;20072;-43
2021/12/16 09:14:02;;;;;;;25.67;13.02;;;9.80;99.90;;;;;;5037525;28;20385;-43
2021/12/16 09:16:31;;;;;;;20.83;13.07;;;9.80;99.90;;;;;;5044768;28;20036;-43
2021/12/16 09:18:57;;;;;;;22.83;12.60;;;9.80;99.90;;;;;;5040804;28;20103;-43
2021/12/16 09:21:26;;;;;;;18.65;12.18;;;9.80;99.90;;;;;;5042818;28;20045;-44
2021/12/16 09:23:52;;;;;;;22.73;13.50;;;9.80;99.90;;;;;;5042041;28;20052;-43
2021/12/16 09:26:19;;;;;;;27.80;13.02;;;9.80;99.90;;;;;;5029008;28;20045;-44
2021/12/16 09:28:45;;;;;;;18.77;13.32;;;9.80;99.90;;;;;;5030477;28;20033;-45
2021/12/16 09:31:15;;;;;;;29.83;13.60;;;9.80;99.90;;;;;;5036751;28;20057;-44
2021/12/16 09:33:45;;;;;;;16.98;11.98;;;9.90;99.90;;;;;;5029066;28;20536;-43
2021/12/16 09:36:13;;;;;;;16.75;11.65;;;9.80;99.90;;;;;;5037089;28;20101;-42
2021/12/16 09:38:40;;;;;;;24.23;11.98;;;9.80;99.90;;;;;;5042992;28;20034;-43
2021/12/16 09:41:06;;;;;;;19.90;10.85;;;9.90;99.90;;;;;;5037135;28;20066;-44
2021/12/16 09:43:36;;;;;;;15.07;10.55;;;9.90;99.90;;;;;;5047415;28;20068;-44
2021/12/16 09:46:12;;;;;;;21.63;12.98;;;9.90;99.90;;;;;;5035273;28;20028;-43
2021/12/16 09:48:38;;;;;;;26.52;12.43;;;9.90;99.90;;;;;;5047351;28;20033;-43
2021/12/16 09:51:08;;;;;;;23.50;11.95;;;9.90;99.90;;;;;;5035028;28;20110;-43
2021/12/16 09:53:35;;;;;;;21.25;11.32;;;9.90;99.90;;;;;;5043481;28;20026;-42
2021/12/16 09:56:09;;;;;;;31.50;12.48;;;9.90;99.90;;;;;;5039745;28;20056;-43
2021/12/16 09:58:38;;;;;;;23.52;11.82;;;9.90;99.90;;;;;;5027651;28;20025;-42
2021/12/16 10:01:06;;;;;;;18.83;12.18;;;10.00;99.90;;;;;;5039922;28;20048;-43
2021/12/16 10:03:32;;;;;;;20.02;12.18;;;10.00;99.90;;;;;;5026977;28;20029;-43
2021/12/16 10:05:58;;;;;;;23.17;11.85;;;10.00;99.90;;;;;;5030443;28;20040;-44
2021/12/16 10:08:24;;;;;;;21.02;11.43;;;10.00;99.90;;;;;;5046101;28;20029;-43
2021/12/16 10:10:49;;;;;;;18.13;10.90;;;10.00;99.90;;;;;;5038233;28;20025;-43
2021/12/16 10:13:24;;;;;;;21.58;11.82;;;10.00;99.90;;;;;;5043115;28;20044;-44
2021/12/16 10:18:19;;;;;;;29.58;12.75;;;10.00;99.90;;;;;;5042194;28;20741;-43
2021/12/16 10:20:56;;;;;;;25.55;12.20;;;10.00;99.90;;;;;;5040945;28;20178;-43
2021/12/16 10:23:32;;;;;;;23.90;11.30;;;10.00;99.90;;;;;;5042216;28;20056;-44
2021/12/16 10:26:00;;;;;;;20.65;11.60;;;10.00;99.90;;;;;;5040468;28;20116;-43
2021/12/16 10:28:31;;;;;;;28.83;12.98;;;10.00;99.90;;;;;;5039109;28;20175;-44
2021/12/16 10:31:04;;;;;;;32.13;13.27;;;10.00;99.90;;;;;;5042724;28;20032;-43
2021/12/16 10:33:32;;;;;;;18.38;13.30;;;10.00;99.90;;;;;;5039664;28;20087;-43
2021/12/16 10:36:21;;;;;;;28.60;13.98;;;10.10;99.90;;;;;;5043239;28;20059;-42
2021/12/16 10:38:57;;;;;;;25.02;12.68;;;10.10;99.90;;;;;;5039063;28;20070;-42
2021/12/16 10:41:33;;;;;;;21.25;11.73;;;10.10;99.90;;;;;;5041876;28;20021;-43
2021/12/16 10:44:18;;;;;;;27.80;13.07;;;10.10;99.90;;;;;;5040526;28;20112;-42
2021/12/16 10:46:51;;;;;;;20.27;13.18;;;10.10;99.90;;;;;;5040152;28;20079;-44
2021/12/16 10:49:25;;;;;;;21.85;13.20;;;10.10;99.90;;;;;;5040795;28;20025;-43
2021/12/16 10:51:57;;;;;;;25.88;13.93;;;10.10;99.90;;;;;;5040974;28;20124;-44
2021/12/16 10:54:31;;;;;;;20.58;11.88;;;10.10;99.90;;;;;;5040836;28;20111;-44
2021/12/16 10:57:31;;;;;;;28.00;13.48;;;10.20;99.90;;;;;;5040217;28;20029;-44
2021/12/16 11:00:13;;;;;;;20.30;12.65;;;10.20;99.90;;;;;;5014652;28;20042;-44
2021/12/16 11:02:40;;;;;;;19.92;12.98;;;10.20;99.90;;;;;;5035743;28;20064;-43
2021/12/16 11:05:10;;;;;;;21.88;12.88;;;10.20;99.90;;;;;;5028933;28;20123;-44
2021/12/16 11:07:40;;;;;;;29.20;13.70;;;10.10;99.90;;;;;;5034381;28;20125;-43
2021/12/16 11:10:13;;;;;;;30.60;14.18;;;10.20;99.90;;;;;;5030094;28;20026;-43
2021/12/16 11:12:52;;;;;;;17.80;12.32;;;10.20;99.90;;;;;;5033113;28;20032;-43
2021/12/16 11:15:42;;;;;;;22.77;12.68;;;10.20;99.90;;;;;;5030406;28;20160;-43
2021/12/16 11:18:13;;;;;;;26.48;13.60;;;10.20;99.90;;;;;;5032093;28;20033;-44
2021/12/16 11:20:46;;;;;;;18.33;12.25;;;10.20;99.90;;;;;;5028841;28;20087;-44
2021/12/16 11:23:17;;;;;;;22.30;13.45;;;10.20;99.90;;;;;;5034169;28;20659;-43
2021/12/16 11:25:44;;;;;;;27.58;14.32;;;10.20;99.90;;;;;;5030096;28;20091;-44
2021/12/16 11:28:12;;;;;;;22.35;12.15;;;10.30;99.90;;;;;;5032253;28;20477;-44
2021/12/16 11:30:53;;;;;;;26.25;12.90;;;10.30;99.90;;;;;;5029941;28;20540;-43
2021/12/16 11:33:32;;;;;;;26.05;13.55;;;10.30;99.90;;;;;;5032799;28;20376;-43
2021/12/16 11:36:09;;;;;;;22.83;13.07;;;10.30;99.90;;;;;;5030433;28;20072;-44
2021/12/16 11:38:37;;;;;;;30.17;13.45;;;10.30;99.90;;;;;;5036523;28;20033;-42
2021/12/16 11:41:14;;;;;;;19.95;13.18;;;10.30;99.90;;;;;;5034343;28;20033;-44
2021/12/16 11:44:07;;;;;;;20.00;13.00;;;10.30;99.90;;;;;;5036295;28;20139;-43
2021/12/16 11:46:43;;;;;;;15.77;11.20;;;10.30;99.90;;;;;;5031803;28;20056;-44
2021/12/16 11:49:34;;;;;;;25.38;13.77;;;10.30;99.90;;;;;;5038905;28;20028;-44
2021/12/16 11:52:09;;;;;;;24.05;12.55;;;10.30;99.90;;;;;;5006559;28;20654;-44
2021/12/16 11:54:54;;;;;;;29.30;13.02;;;10.30;99.90;;;;;;5036327;28;20025;-44
2021/12/16 11:57:20;;;;;;;22.38;12.82;;;10.30;99.90;;;;;;5010336;28;20048;-44
2021/12/16 11:59:49;;;;;;;21.77;13.40;;;10.30;99.90;;;;;;5031130;28;20037;-43
2021/12/16 12:02:34;;;;;;;30.48;14.32;;;10.30;99.90;;;;;;5049148;28;20028;-42
2021/12/16 12:05:19;;;;;;;29.63;14.27;;;10.40;99.90;;;;;;5037161;28;20647;-43
2021/12/16 12:08:06;;;;;;;22.77;13.48;;;10.40;99.90;;;;;;5010383;28;20042;-44
2021/12/16 12:10:38;;;;;;;21.17;13.68;;;10.40;99.90;;;;;;5040912;28;20029;-44
2021/12/16 12:13:07;;;;;;;24.65;13.50;;;10.40;99.90;;;;;;5029151;28;20029;-43
2021/12/16 12:15:56;;;;;;;25.67;14.55;;;10.40;99.90;;;;;;5041587;28;20027;-43
2021/12/16 12:18:39;;;;;;;29.02;14.32;;;10.40;99.90;;;;;;5030126;28;20053;-43
2021/12/16 12:21:25;;;;;;;27.33;12.90;;;10.40;99.90;;;;;;5040732;28;20050;-44
2021/12/16 12:24:04;;;;;;;27.58;12.40;;;10.40;99.90;;;;;;5029587;28;20037;-44
2021/12/16 12:26:32;;;;;;;23.23;14.75;;;10.40;99.90;;;;;;5036781;28;20048;-43
2021/12/16 12:29:03;;;;;;;29.27;14.30;;;10.50;99.90;;;;;;5029307;28;20029;-43
2021/12/16 12:31:32;;;;;;;33.13;14.25;;;10.40;99.90;;;;;;5040783;28;20037;-42
2021/12/16 12:33:58;;;;;;;24.13;12.68;;;10.50;99.90;;;;;;5028889;28;20025;-43
2021/12/16 12:36:24;;;;;;;21.80;12.80;;;10.50;99.90;;;;;;5040996;28;20032;-43
2021/12/16 12:38:51;;;;;;;17.33;12.68;;;10.40;99.90;;;;;;5029828;28;20032;-44
2021/12/16 12:41:16;;;;;;;20.95;12.43;;;10.40;99.90;;;;;;5042193;28;20369;-44
2021/12/16 12:43:42;;;;;;;32.00;13.95;;;10.50;99.90;;;;;;5029035;28;20189;-44
2021/12/16 12:46:08;;;;;;;25.92;12.73;;;10.50;99.90;;;;;;5038180;28;20065;-44
2021/12/16 12:48:36;;;;;;;23.73;12.50;;;10.50;99.90;;;;;;5030437;28;20086;-43
2021/12/16 12:51:04;;;;;;;27.05;12.65;;;10.50;99.90;;;;;;5035596;28;20111;-44
2021/12/16 12:53:51;;;;;;;24.35;12.70;;;10.50;99.90;;;;;;5033216;28;20699;-44
2021/12/16 12:56:27;;;;;;;33.60;12.27;;;10.50;99.90;;;;;;5035817;28;20384;-44
2021/12/16 12:58:58;;;;;;;26.88;14.38;;;10.40;99.90;;;;;;5031832;28;20461;-44
2021/12/16 13:01:48;;;;;;;29.70;14.88;;;10.40;99.90;;;;;;5035606;28;20029;-44
2021/12/16 13:04:23;;;;;;;39.90;14.68;;;10.40;99.90;;;;;;5030591;28;20065;-43
2021/12/16 13:06:59;;;;;;;25.63;14.57;;;10.50;99.90;;;;;;5037462;28;20037;-43
2021/12/16 13:09:53;;;;;;;24.50;14.20;;;10.50;99.90;;;;;;5029316;28;20420;-44
2021/12/16 13:12:25;;;;;;;21.25;12.63;;;10.50;99.90;;;;;;5040764;28;20025;-43
2021/12/16 13:14:53;;;;;;;23.13;12.20;;;10.50;99.90;;;;;;5008683;28;20030;-43
2021/12/16 13:23:24;;;;;;;19.67;13.02;;;10.50;99.90;;;;;;5033716;28;20024;-43
2021/12/16 13:23:31;;;;;;;23.60;14.27;;;10.40;99.90;;;;;;5039557;28;20527;-44
2021/12/16 13:29:03;;;;;;;25.55;14.27;;;10.40;99.90;;;;;;5037451;28;20046;-42
2021/12/16 13:32:26;;;;;;;23.42;13.55;;;10.40;99.90;;;;;;5028479;28;20032;-43
2021/12/16 13:34:28;;;;;;;18.30;13.30;;;10.50;99.90;;;;;;5028084;28;20037;-43
2021/12/16 13:36:57;;;;;;;22.33;14.63;;;10.40;99.90;;;;;;5045068;28;20082;-43
2021/12/16 13:39:29;;;;;;;26.63;13.63;;;10.40;99.90;;;;;;5037610;28;20029;-44
2021/12/16 13:42:07;;;;;;;29.98;14.27;;;10.40;99.90;;;;;;5045827;28;20463;-44
2021/12/16 13:45:00;;;;;;;25.48;14.85;;;10.40;99.90;;;;;;5026489;28;20028;-43
2021/12/16 14:00:20;;;;;;;20.48;12.82;;;10.40;99.90;;;;;;5037811;28;20043;-45
2021/12/16 14:05:24;;;;;;;22.38;13.85;;;10.40;99.90;;;;;;5038070;28;20037;-44
2021/12/16 14:07:58;;;;;;;36.60;14.18;;;10.30;99.90;;;;;;5028559;28;20056;-42
2021/12/16 14:10:51;;;;;;;34.83;14.65;;;10.30;99.90;;;;;;5036883;28;20021;-44
2021/12/16 14:42:30;;;;;;;33.35;13.98;;;10.20;99.90;;;;;;5042657;28;20047;-44
2021/12/16 14:50:10;;;;;;;26.27;15.00;;;10.10;99.90;;;;;;5037719;28;20065;-44
2021/12/16 14:52:36;;;;;;;24.60;15.20;;;10.20;99.90;;;;;;5042833;28;20029;-43
2021/12/16 14:55:11;;;;;;;35.70;15.57;;;10.20;99.90;;;;;;5035453;28;20118;-44
2021/12/16 14:57:41;;;;;;;30.08;15.48;;;10.10;99.90;;;;;;5031461;28;20747;-43
2021/12/16 15:00:21;;;;;;;33.95;15.52;;;10.10;99.90;;;;;;5031874;28;20090;-43
2021/12/16 15:02:56;;;;;;;30.38;14.35;;;10.10;99.90;;;;;;5030817;28;20107;-43
2021/12/16 15:05:45;;;;;;;36.60;15.15;;;10.10;99.90;;;;;;5032817;28;20017;-43
2021/12/16 15:08:50;;;;;;;39.20;15.77;;;10.10;99.90;;;;;;5028979;28;20064;-43
2021/12/16 15:11:26;;;;;;;28.83;16.63;;;10.10;99.90;;;;;;5038277;28;20197;-44
2021/12/16 15:13:57;;;;;;;33.10;15.77;;;10.10;99.90;;;;;;5010861;28;20618;-48
2021/12/16 15:39:24;;;;;;;29.48;16.02;;;9.90;99.90;;;;;;5041671;28;20091;-44
2021/12/16 15:44:14;;;;;;;31.90;15.68;;;10.00;99.90;;;;;;5039944;28;20188;-44
2021/12/16 15:46:40;;;;;;;30.85;15.88;;;9.90;99.90;;;;;;5034191;28;20124;-44
2021/12/16 15:49:07;;;;;;;29.35;16.48;;;9.90;99.90;;;;;;5042788;28;20664;-43
2021/12/16 15:51:34;;;;;;;31.60;16.30;;;9.90;99.90;;;;;;5045943;28;20029;-46
2021/12/16 15:54:01;;;;;;;31.40;16.80;;;9.90;99.90;;;;;;5040991;28;20017;-44
2021/12/16 15:56:33;;;;;;;30.67;17.35;;;9.90;99.90;;;;;;5047749;28;20033;-43
2021/12/16 15:59:09;;;;;;;27.40;16.13;;;9.90;99.90;;;;;;5027825;28;20033;-43
2021/12/16 16:01:49;;;;;;;25.92;16.55;;;9.90;99.90;;;;;;5048591;28;20041;-43
2021/12/16 16:04:16;;;;;;;24.27;15.95;;;9.90;99.90;;;;;;5030260;28;20033;-43
2021/12/16 16:06:44;;;;;;;27.02;16.50;;;9.90;99.90;;;;;;5047344;28;20454;-44
2021/12/16 16:09:12;;;;;;;31.60;18.08;;;9.90;99.90;;;;;;5038068;28;20062;-44
2021/12/16 16:11:41;;;;;;;28.80;18.02;;;9.90;99.90;;;;;;5047548;28;20033;-44
2021/12/16 16:14:07;;;;;;;33.75;17.00;;;10.00;99.90;;;;;;5038391;28;20071;-44
2021/12/16 16:16:42;;;;;;;29.10;18.02;;;10.00;99.90;;;;;;5049077;28;20469;-44
2021/12/16 16:19:09;;;;;;;34.47;17.27;;;10.00;99.90;;;;;;5036738;28;20380;-43
2021/12/16 16:21:41;;;;;;;34.97;16.40;;;10.00;99.90;;;;;;5048936;28;20563;-43
2021/12/16 16:24:13;;;;;;;29.70;17.37;;;10.00;99.90;;;;;;5036695;28;20103;-43
2021/12/16 16:26:40;;;;;;;31.83;17.27;;;10.00;99.90;;;;;;5048518;28;20033;-43